Airfield :
LOGIN :

Register | Disclaimer

   EN    FR    IT 

 










Legend :    VFR   Marginal VFR   IFR   Intensive IFR   Very Intensive IFR
Visi :
Ceiling :
>= 8 km
>= 3000ft
5 to 8 km
1000 to 3000 ft
1500m to 5 km
500 to 1000 ft
800 to 1500m
200 to 500 ft
< 800m
< 200 ft
Symbols :   Thunderstorms  Fog  Heavy snow  Heavy precipitations  Wind > 20 kt
SIGMETs :     Misc.  Thunderstorms  Icing  Turbulence  Mountain Waves  Volcanic Ashes






- Airport Elevation : 503 ft
- IATA code : BLE


ESSD - Borlange

CURRENT METAR :
  • 211450Z 19004KT 160V220 8000 BR BKN006 05/04 Q1018

EXPIRED METARs :
  • 211420Z 22004KT 190V250 9999 BKN008 05/04 Q1019
  • 211350Z AUTO 22004KT 190V250 9999 FEW008/// BKN015/// 05/04 Q1019
  • 211320Z AUTO 20004KT 160V230 9999 SCT007/// OVC013/// 05/04 Q1019
  • 211250Z AUTO 15003KT 120V210 9999 BR SCT005/// BKN008/// BKN012/// 05/04 Q1020
  • 211220Z AUTO 11002KT 9999 BKN003/// OVC006/// 04/04 Q1020

Expired Forecast.



MET'MAP, your aeronautical weather chart ! - Copyright ORBIFLY December 2007 - Disclaimer

ORBIFLY MET'MAP TEAM :

Programming & Development : Alexandra Zaïnal
Concept & Development : Baudouin d'Aumeries
Co-Development & Prog : Marc-Olivier Méhu
Technical & hardware support : Manuel Goepfert

Contact : metmap@orbifly.com




SOURCES & CREDITS :

   NOAA